Time;durP1;ratioP1;P1;durP2;ratioP2;P2;SDS_P1;SDS_P2;PMS_P1;PMS_P2;Temp;Humidity;BMP_temperature;BMP_pressure;BME280_temperature;BME280_humidity;BME280_pressure;Samples;Min_cycle;Max_cycle;Signal;HPM_P1;HPM_P2
2023/06/22 00:00:52;;;;;;;17.15;9.45;;;22.20;95.40;;;;;;5031184;28;20038;-68
2023/06/22 00:03:19;;;;;;;13.40;10.32;;;22.40;95.30;;;;;;5030752;28;20033;-68
2023/06/22 00:05:45;;;;;;;13.80;11.15;;;22.40;95.20;;;;;;5030763;28;20481;-68
2023/06/22 00:08:12;;;;;;;16.38;12.18;;;22.50;95.30;;;;;;5029101;28;20033;-67
2023/06/22 00:10:38;;;;;;;16.83;11.35;;;22.50;95.60;;;;;;5031458;28;20045;-68
2023/06/22 00:13:05;;;;;;;14.23;11.82;;;22.50;95.70;;;;;;5029798;28;20456;-68
2023/06/22 00:15:30;;;;;;;14.38;10.63;;;22.50;95.70;;;;;;5029562;28;20124;-68
2023/06/22 00:17:57;;;;;;;13.43;10.82;;;22.50;95.70;;;;;;5030862;28;20025;-69
2023/06/22 00:20:27;;;;;;;13.68;11.88;;;22.50;95.50;;;;;;5030703;28;20025;-67
2023/06/22 00:22:54;;;;;;;16.25;12.35;;;22.50;95.60;;;;;;5030777;28;20041;-67
2023/06/22 00:25:20;;;;;;;16.90;11.75;;;22.50;95.80;;;;;;5031154;28;20060;-68
2023/06/22 00:27:45;;;;;;;15.20;11.50;;;22.40;95.80;;;;;;5029736;28;20091;-68
2023/06/22 00:30:12;;;;;;;14.48;11.07;;;22.40;95.70;;;;;;5030513;28;20053;-70
2023/06/22 00:32:37;;;;;;;14.02;11.75;;;22.40;95.50;;;;;;5030933;28;20093;-68
2023/06/22 00:35:03;;;;;;;16.15;12.18;;;22.40;95.40;;;;;;5030291;28;20351;-68
2023/06/22 00:37:29;;;;;;;13.77;11.55;;;22.50;95.40;;;;;;5031277;28;20021;-68
2023/06/22 00:39:56;;;;;;;17.17;12.55;;;22.40;95.30;;;;;;5030580;28;20040;-67
2023/06/22 00:42:23;;;;;;;15.30;12.02;;;22.40;95.50;;;;;;5028576;28;20033;-68
2023/06/22 00:44:48;;;;;;;17.27;11.35;;;22.40;95.80;;;;;;5030274;28;20029;-67
2023/06/22 00:47:17;;;;;;;16.52;11.43;;;22.30;95.50;;;;;;5030283;28;20044;-67
2023/06/22 00:49:43;;;;;;;16.10;11.43;;;22.30;95.60;;;;;;5030012;28;20032;-68
2023/06/22 00:52:13;;;;;;;17.17;11.25;;;22.30;95.70;;;;;;5032767;28;20022;-67
2023/06/22 00:54:45;;;;;;;16.58;11.25;;;22.30;95.70;;;;;;5034426;28;20403;-68
2023/06/22 00:57:15;;;;;;;13.98;11.23;;;22.20;95.70;;;;;;5033300;28;20125;-68
2023/06/22 00:59:43;;;;;;;11.98;10.73;;;22.30;95.70;;;;;;5034155;28;20037;-66
2023/06/22 01:02:09;;;;;;;17.45;11.18;;;22.20;95.60;;;;;;5034000;28;20389;-69
2023/06/22 01:04:36;;;;;;;14.93;10.85;;;22.20;95.70;;;;;;5034422;28;20418;-67
2023/06/22 01:07:27;;;;;;;14.18;11.63;;;22.20;95.70;;;;;;5032446;28;20345;-67
2023/06/22 01:10:43;;;;;;;13.20;10.65;;;22.20;95.70;;;;;;5031878;28;20056;-68
2023/06/22 01:13:31;;;;;;;13.93;10.43;;;22.10;95.80;;;;;;5031580;28;20053;-68
2023/06/22 01:16:33;;;;;;;15.23;10.55;;;22.20;95.70;;;;;;5031464;28;20034;-68
2023/06/22 01:19:14;;;;;;;18.08;9.65;;;22.20;95.90;;;;;;5029556;28;20029;-68
2023/06/22 01:21:41;;;;;;;11.93;10.00;;;22.10;96.00;;;;;;5053512;28;20039;-67
2023/06/22 01:24:24;;;;;;;15.63;10.73;;;22.10;96.10;;;;;;5053197;28;20057;-67
2023/06/22 01:27:22;;;;;;;13.60;10.52;;;22.10;96.20;;;;;;5053353;28;20044;-68
2023/06/22 01:29:52;;;;;;;12.82;10.45;;;22.10;96.20;;;;;;5053025;28;20099;-68
2023/06/22 01:32:19;;;;;;;13.35;10.65;;;22.10;96.20;;;;;;5053228;28;20044;-68
2023/06/22 01:34:46;;;;;;;13.68;10.48;;;22.10;96.20;;;;;;5052921;28;20355;-69
2023/06/22 01:37:13;;;;;;;12.45;10.02;;;22.10;96.10;;;;;;5073065;28;20031;-68
2023/06/22 01:39:39;;;;;;;12.23;9.27;;;22.10;96.20;;;;;;5073153;28;20071;-70
2023/06/22 01:42:06;;;;;;;11.35;10.13;;;21.90;96.40;;;;;;5073038;28;20411;-68
2023/06/22 01:44:33;;;;;;;12.90;10.10;;;21.90;96.40;;;;;;5072775;28;20048;-68
2023/06/22 01:46:59;;;;;;;15.10;9.73;;;21.80;96.50;;;;;;5073060;28;20021;-68
2023/06/22 01:49:25;;;;;;;13.77;10.00;;;21.70;96.60;;;;;;5073480;28;20028;-68
2023/06/22 01:51:51;;;;;;;14.10;10.13;;;21.70;96.80;;;;;;5072856;28;20137;-68
2023/06/22 01:54:17;;;;;;;13.75;10.02;;;21.60;96.80;;;;;;5072995;28;20119;-66
2023/06/22 01:56:42;;;;;;;12.23;9.13;;;21.60;97.00;;;;;;5071667;28;20029;-68
2023/06/22 01:59:32;;;;;;;11.00;9.02;;;21.50;97.20;;;;;;5072766;28;20032;-66
2023/06/22 02:02:04;;;;;;;13.93;10.18;;;21.50;96.90;;;;;;5072340;28;20020;-68
2023/06/22 02:04:56;;;;;;;12.63;9.52;;;21.50;97.00;;;;;;5073289;28;20112;-68
2023/06/22 02:07:23;;;;;;;12.82;9.70;;;21.40;97.20;;;;;;5052878;28;20029;-66
2023/06/22 02:09:52;;;;;;;14.55;9.82;;;21.50;97.10;;;;;;5070259;28;20128;-67
2023/06/22 02:12:22;;;;;;;11.57;9.32;;;21.50;96.80;;;;;;5072677;28;20037;-68
2023/06/22 02:14:49;;;;;;;12.93;9.70;;;21.60;96.60;;;;;;5072331;28;20036;-68
2023/06/22 02:17:16;;;;;;;12.80;9.40;;;21.50;96.80;;;;;;5072530;28;20037;-67
2023/06/22 02:19:42;;;;;;;12.93;9.57;;;21.50;96.90;;;;;;5072597;28;20060;-68
2023/06/22 02:22:08;;;;;;;12.90;8.77;;;21.50;97.00;;;;;;5072841;28;20133;-68
2023/06/22 02:24:33;;;;;;;12.38;9.05;;;21.50;97.00;;;;;;5072531;28;20028;-68
2023/06/22 02:27:00;;;;;;;10.63;8.80;;;21.50;97.10;;;;;;5072530;28;20033;-68
2023/06/22 02:29:27;;;;;;;11.40;9.43;;;21.50;96.90;;;;;;5071074;28;20060;-68
2023/06/22 02:31:53;;;;;;;12.27;8.80;;;21.50;96.80;;;;;;5072433;28;20047;-67
2023/06/22 02:34:19;;;;;;;9.80;8.77;;;21.50;96.70;;;;;;5072724;28;20108;-67
2023/06/22 02:36:50;;;;;;;13.32;10.35;;;21.60;96.80;;;;;;5072214;28;20103;-67
2023/06/22 02:39:22;;;;;;;13.48;9.15;;;21.50;97.10;;;;;;5072298;28;20501;-67
2023/06/22 02:41:52;;;;;;;16.00;9.80;;;21.50;97.20;;;;;;5072006;28;20067;-67
2023/06/22 02:44:19;;;;;;;9.10;7.97;;;21.50;97.00;;;;;;5071934;28;20090;-68
2023/06/22 02:46:45;;;;;;;14.15;9.48;;;21.40;97.30;;;;;;5071870;28;20043;-67
2023/06/22 02:49:11;;;;;;;15.30;10.10;;;21.30;97.40;;;;;;5072358;28;20445;-66
2023/06/22 02:51:45;;;;;;;13.23;9.55;;;21.40;97.40;;;;;;5071745;28;20028;-68
2023/06/22 02:54:11;;;;;;;14.05;9.27;;;21.30;97.50;;;;;;5071850;28;20123;-69
2023/06/22 02:56:36;;;;;;;10.95;9.20;;;21.30;97.70;;;;;;5071888;28;20147;-68
2023/06/22 02:59:03;;;;;;;12.02;9.20;;;21.20;97.80;;;;;;5071664;28;20039;-68
2023/06/22 03:01:30;;;;;;;11.32;8.43;;;21.10;98.10;;;;;;5072079;28;20451;-68
2023/06/22 03:03:58;;;;;;;13.35;9.70;;;21.10;98.10;;;;;;5071739;28;20029;-67
2023/06/22 03:06:28;;;;;;;10.75;8.57;;;21.10;98.30;;;;;;5071631;28;20128;-68
2023/06/22 03:09:00;;;;;;;15.23;9.27;;;21.10;98.10;;;;;;5070390;28;20104;-67
2023/06/22 03:11:26;;;;;;;12.52;9.15;;;21.00;98.20;;;;;;5071352;28;20045;-67
2023/06/22 03:13:52;;;;;;;14.95;9.55;;;20.90;98.30;;;;;;5070883;28;20417;-68
2023/06/22 03:16:19;;;;;;;14.57;10.35;;;20.80;98.50;;;;;;5071790;28;20028;-67
2023/06/22 03:18:45;;;;;;;12.98;9.40;;;20.80;98.50;;;;;;5070233;28;20028;-68
2023/06/22 03:21:10;;;;;;;13.38;8.63;;;20.90;98.60;;;;;;5070161;28;20109;-67
2023/06/22 03:23:36;;;;;;;11.32;8.98;;;20.80;98.60;;;;;;5071263;28;20380;-67
2023/06/22 03:26:02;;;;;;;17.25;9.48;;;20.80;98.70;;;;;;5071137;28;20036;-67
2023/06/22 03:28:28;;;;;;;15.65;10.43;;;20.80;98.90;;;;;;5071465;28;20519;-67
2023/06/22 03:30:54;;;;;;;14.25;9.18;;;20.70;98.90;;;;;;5070025;28;20119;-66
2023/06/22 03:33:19;;;;;;;12.57;9.48;;;20.70;98.90;;;;;;5071137;28;20029;-68
2023/06/22 03:35:45;;;;;;;12.48;9.68;;;20.60;99.00;;;;;;5070897;28;20097;-67
2023/06/22 03:38:10;;;;;;;10.85;9.27;;;20.70;99.10;;;;;;5070949;28;20028;-69
2023/06/22 03:40:36;;;;;;;11.23;8.90;;;20.70;99.10;;;;;;5071660;28;20071;-68
2023/06/22 03:43:02;;;;;;;12.68;10.25;;;20.60;99.10;;;;;;5070735;28;20040;-67
2023/06/22 03:45:27;;;;;;;13.32;10.05;;;20.70;99.20;;;;;;5070764;28;20032;-67
2023/06/22 03:47:53;;;;;;;15.10;9.75;;;20.80;98.90;;;;;;5070915;28;20033;-67
2023/06/22 03:50:20;;;;;;;16.48;9.88;;;20.90;98.80;;;;;;5070522;28;20040;-67
2023/06/22 03:52:46;;;;;;;13.50;10.00;;;20.90;98.60;;;;;;5070712;28;20457;-67
2023/06/22 03:55:11;;;;;;;13.95;9.02;;;21.00;98.70;;;;;;5071255;28;20024;-67
2023/06/22 03:57:37;;;;;;;17.05;9.40;;;20.90;98.90;;;;;;5070604;28;20033;-67
2023/06/22 04:00:05;;;;;;;12.48;9.65;;;21.00;98.90;;;;;;5070659;28;20037;-68
2023/06/22 04:02:31;;;;;;;12.88;9.80;;;20.90;98.90;;;;;;5070786;28;20036;-68
2023/06/22 04:04:57;;;;;;;13.02;9.15;;;20.80;99.10;;;;;;5070622;28;20073;-69
2023/06/22 04:07:22;;;;;;;18.88;10.43;;;20.80;99.30;;;;;;5071088;28;20025;-67
2023/06/22 04:09:48;;;;;;;15.15;9.10;;;20.80;99.20;;;;;;5070513;28;20127;-68
2023/06/22 04:12:14;;;;;;;10.45;8.50;;;20.90;99.00;;;;;;5070512;28;20025;-69
2023/06/22 04:14:39;;;;;;;13.13;9.63;;;21.00;99.00;;;;;;5070412;28;20040;-67
2023/06/22 04:17:05;;;;;;;15.88;9.05;;;21.10;98.60;;;;;;5070395;28;20048;-67
2023/06/22 04:19:30;;;;;;;13.80;9.65;;;21.10;98.60;;;;;;5070837;28;20017;-67
2023/06/22 04:21:56;;;;;;;17.60;10.15;;;21.20;98.80;;;;;;5070561;28;20029;-68
2023/06/22 04:24:22;;;;;;;15.13;10.30;;;21.20;98.70;;;;;;5070507;28;20071;-68
2023/06/22 04:26:47;;;;;;;18.45;9.77;;;21.20;98.70;;;;;;5069106;28;20056;-68
2023/06/22 04:29:14;;;;;;;12.35;9.68;;;21.30;98.60;;;;;;5070201;28;20021;-68
2023/06/22 04:31:39;;;;;;;11.80;9.05;;;21.30;98.50;;;;;;5070667;28;20025;-68
2023/06/22 04:34:06;;;;;;;13.98;9.25;;;21.40;98.30;;;;;;5070202;28;20367;-68
2023/06/22 04:36:37;;;;;;;13.60;9.67;;;21.40;98.30;;;;;;5070640;28;20043;-68
2023/06/22 04:39:09;;;;;;;13.88;8.70;;;21.40;98.30;;;;;;5070506;28;20032;-67
2023/06/22 04:41:41;;;;;;;14.93;9.10;;;21.50;98.20;;;;;;5070631;28;20029;-68
2023/06/22 04:44:23;;;;;;;10.80;8.40;;;21.50;98.10;;;;;;5069247;28;20055;-68
2023/06/22 04:47:08;;;;;;;15.27;9.07;;;21.50;98.00;;;;;;5069060;28;20362;-66
2023/06/22 04:49:37;;;;;;;15.20;9.43;;;21.50;98.00;;;;;;5070626;28;20458;-68
2023/06/22 04:52:05;;;;;;;16.88;9.88;;;21.60;98.10;;;;;;5070139;28;20076;-66
2023/06/22 04:54:32;;;;;;;15.30;8.68;;;21.60;97.90;;;;;;5069334;28;20408;-67
2023/06/22 04:57:02;;;;;;;12.38;8.30;;;21.70;97.80;;;;;;5070086;28;20024;-66
2023/06/22 04:59:29;;;;;;;11.65;8.85;;;21.70;97.90;;;;;;5068916;28;20029;-67
2023/06/22 05:01:59;;;;;;;15.27;8.57;;;21.80;97.70;;;;;;5069900;28;20104;-68
2023/06/22 05:04:27;;;;;;;15.35;9.23;;;21.90;97.80;;;;;;5070266;28;20016;-67
2023/06/22 05:06:53;;;;;;;;;;;21.80;97.70;;;;;;5070491;28;20029;-69
2023/06/22 05:09:19;;;;;;;15.13;8.10;;;21.90;97.90;;;;;;5070043;28;19985;-66
2023/06/22 05:11:45;;;;;;;10.25;7.95;;;21.90;97.80;;;;;;5070045;28;20127;-66
2023/06/22 05:14:11;;;;;;;11.98;7.85;;;21.90;97.80;;;;;;5068637;28;20510;-67
2023/06/22 05:16:37;;;;;;;22.13;9.30;;;22.00;97.90;;;;;;5069037;28;20029;-67
2023/06/22 05:19:03;;;;;;;19.60;9.35;;;22.00;97.80;;;;;;5069919;28;20486;-68
2023/06/22 05:21:30;;;;;;;21.00;9.43;;;22.10;97.80;;;;;;5068553;28;20442;-68
2023/06/22 05:24:02;;;;;;;23.73;9.18;;;22.10;97.70;;;;;;5070000;28;20032;-68
2023/06/22 05:26:29;;;;;;;11.30;8.25;;;22.20;97.60;;;;;;5069789;28;20032;-68
2023/06/22 05:28:54;;;;;;;11.88;8.25;;;22.20;97.40;;;;;;5069794;28;20032;-68
2023/06/22 05:31:20;;;;;;;16.30;8.57;;;22.30;97.30;;;;;;5069836;28;20462;-67
2023/06/22 05:33:47;;;;;;;22.77;8.15;;;22.40;97.50;;;;;;5069959;28;20055;-67
2023/06/22 05:36:13;;;;;;;24.70;8.55;;;22.50;97.30;;;;;;5069642;28;20025;-67
2023/06/22 05:38:40;;;;;;;18.52;8.32;;;22.50;97.10;;;;;;5072128;28;20375;-69
2023/06/22 05:41:06;;;;;;;19.13;8.13;;;22.50;97.10;;;;;;5071813;28;20034;-68
2023/06/22 05:43:32;;;;;;;12.98;7.50;;;22.60;97.20;;;;;;5073216;28;20031;-67
2023/06/22 05:45:58;;;;;;;16.85;7.45;;;22.60;97.10;;;;;;5072816;28;20025;-68
2023/06/22 05:48:24;;;;;;;27.45;8.43;;;22.70;97.20;;;;;;5071614;28;20434;-74
2023/06/22 05:50:50;;;;;;;15.30;7.28;;;22.80;96.90;;;;;;5072790;28;20047;-70
2023/06/22 05:53:15;;;;;;;15.75;8.10;;;22.80;96.90;;;;;;5072934;28;20033;-69
2023/06/22 05:55:42;;;;;;;23.23;12.57;;;22.90;96.90;;;;;;5073177;28;20028;-67
2023/06/22 05:58:08;;;;;;;9.77;7.22;;;22.90;97.10;;;;;;5073242;28;20490;-68
2023/06/22 06:00:35;;;;;;;11.50;6.85;;;23.00;96.70;;;;;;5071788;28;20108;-68
2023/06/22 06:03:03;;;;;;;20.85;8.60;;;23.00;96.80;;;;;;5072684;28;20054;-68
2023/06/22 06:05:30;;;;;;;17.33;7.57;;;23.10;96.70;;;;;;5072477;28;20029;-68
2023/06/22 06:07:56;;;;;;;11.87;6.83;;;23.20;96.60;;;;;;5072909;28;20025;-68
2023/06/22 06:10:23;;;;;;;15.35;7.30;;;23.20;96.50;;;;;;5073061;28;20021;-68
2023/06/22 06:12:48;;;;;;;15.57;7.43;;;23.20;96.30;;;;;;5072683;28;20040;-68
2023/06/22 06:15:14;;;;;;;12.63;6.90;;;23.30;96.60;;;;;;5072764;28;20082;-69
2023/06/22 06:17:51;;;;;;;9.90;6.47;;;23.40;96.60;;;;;;5072341;28;20028;-68
2023/06/22 06:20:20;;;;;;;13.50;6.55;;;23.40;96.10;;;;;;5071176;28;20044;-67
2023/06/22 06:22:46;;;;;;;9.23;7.25;;;23.40;96.10;;;;;;5072143;28;20359;-67
2023/06/22 06:25:15;;;;;;;12.68;7.00;;;23.50;95.90;;;;;;5072681;28;20502;-69
2023/06/22 06:27:45;;;;;;;16.92;6.95;;;23.60;95.80;;;;;;5072334;28;20029;-70
2023/06/22 06:30:12;;;;;;;10.50;5.68;;;23.60;95.80;;;;;;5072167;28;20113;-70
2023/06/22 06:32:39;;;;;;;15.43;5.88;;;23.60;95.50;;;;;;5072443;28;20125;-70
2023/06/22 06:35:09;;;;;;;10.60;6.33;;;23.60;95.40;;;;;;5070991;28;20178;-71
2023/06/22 06:37:46;;;;;;;11.07;6.03;;;23.70;95.30;;;;;;5072592;28;20312;-70
2023/06/22 06:40:13;;;;;;;9.95;6.28;;;23.80;95.20;;;;;;5053322;28;20463;-71
2023/06/22 06:42:47;;;;;;;15.80;5.28;;;23.80;95.30;;;;;;5053106;28;20056;-72
2023/06/22 06:45:25;;;;;;;22.80;7.45;;;23.90;95.20;;;;;;5065529;28;20033;-72
2023/06/22 06:47:52;;;;;;;22.90;6.38;;;23.90;95.00;;;;;;5073064;28;20063;-72
2023/06/22 06:50:18;;;;;;;19.98;7.32;;;24.00;95.10;;;;;;5071310;28;20106;-71
2023/06/22 06:52:43;;;;;;;34.63;8.38;;;24.10;94.60;;;;;;5073311;28;20048;-72
2023/06/22 06:55:11;;;;;;;20.40;6.50;;;24.10;94.50;;;;;;5073631;28;20446;-72
2023/06/22 06:57:48;;;;;;;15.85;6.03;;;24.20;94.60;;;;;;5070922;28;20275;-72
2023/06/22 07:00:15;;;;;;;11.75;5.57;;;24.20;94.50;;;;;;5071904;28;20052;-69
2023/06/22 07:02:45;;;;;;;14.00;5.67;;;24.30;94.50;;;;;;5072331;28;20441;-71
2023/06/22 07:05:11;;;;;;;7.68;4.80;;;24.40;94.00;;;;;;5071807;28;20036;-71
2023/06/22 07:07:38;;;;;;;6.63;5.15;;;24.50;93.80;;;;;;5071059;28;20048;-71
2023/06/22 07:10:05;;;;;;;9.40;5.93;;;24.60;93.70;;;;;;5071801;28;20063;-71
2023/06/22 07:12:31;;;;;;;12.00;5.88;;;24.60;93.60;;;;;;5070526;28;20331;-71
2023/06/22 07:15:11;;;;;;;13.23;5.50;;;24.70;93.50;;;;;;5070382;28;20029;-72
2023/06/22 07:17:37;;;;;;;11.38;6.30;;;24.80;93.60;;;;;;5070173;28;20029;-74
2023/06/22 07:20:13;;;;;;;16.70;6.22;;;25.00;93.60;;;;;;5071311;28;20358;-71
2023/06/22 07:22:47;;;;;;;14.95;5.95;;;25.10;93.20;;;;;;5070619;28;20043;-71
2023/06/22 07:25:16;;;;;;;15.68;7.72;;;25.10;93.20;;;;;;5070100;28;20028;-71
2023/06/22 07:28:07;;;;;;;8.60;6.80;;;25.10;93.20;;;;;;5071505;28;20494;-72
2023/06/22 07:30:33;;;;;;;8.48;5.53;;;25.20;93.30;;;;;;5070687;28;20455;-73
2023/06/22 07:33:03;;;;;;;12.70;5.90;;;25.40;93.20;;;;;;5071418;28;20036;-73
2023/06/22 07:35:30;;;;;;;9.35;5.70;;;25.40;93.00;;;;;;5070975;28;20131;-74
2023/06/22 07:37:56;;;;;;;11.02;6.18;;;25.40;92.80;;;;;;5069635;28;20400;-73
2023/06/22 07:40:22;;;;;;;12.77;6.15;;;25.50;92.70;;;;;;5071193;28;20036;-70
2023/06/22 07:42:51;;;;;;;24.65;12.35;;;25.50;92.60;;;;;;5069475;28;20086;-70
2023/06/22 07:45:17;;;;;;;18.05;8.45;;;25.60;92.60;;;;;;5069610;28;20040;-71
2023/06/22 07:47:43;;;;;;;20.83;10.70;;;25.60;92.40;;;;;;5069651;28;20051;-71
2023/06/22 07:50:09;;;;;;;8.20;6.20;;;25.80;92.10;;;;;;5070483;28;20467;-70
2023/06/22 07:52:35;;;;;;;12.48;8.70;;;25.90;92.00;;;;;;5070972;28;20028;-70
2023/06/22 07:55:02;;;;;;;9.07;5.50;;;26.00;91.60;;;;;;5070606;28;20078;-71
2023/06/22 07:57:33;;;;;;;9.20;6.40;;;26.10;91.40;;;;;;5070668;28;20086;-71
2023/06/22 08:00:00;;;;;;;9.60;5.95;;;26.10;91.20;;;;;;5070251;28;20036;-72
2023/06/22 08:02:26;;;;;;;7.75;5.97;;;26.10;90.70;;;;;;5069450;28;20466;-70
2023/06/22 08:04:52;;;;;;;14.63;5.72;;;26.00;90.90;;;;;;5070355;28;20037;-70
2023/06/22 08:07:19;;;;;;;7.40;5.53;;;26.00;90.90;;;;;;5070857;28;20016;-71
2023/06/22 08:09:49;;;;;;;22.10;6.00;;;26.00;91.30;;;;;;5069322;28;20050;-70
2023/06/22 08:12:15;;;;;;;16.38;5.60;;;26.00;91.10;;;;;;5069298;28;20489;-71
2023/06/22 08:14:44;;;;;;;10.50;5.15;;;26.00;91.00;;;;;;5070293;28;20143;-71
2023/06/22 08:17:09;;;;;;;6.20;4.82;;;26.00;91.00;;;;;;5070323;28;20234;-72
2023/06/22 08:19:36;;;;;;;13.88;6.88;;;26.00;91.30;;;;;;5069686;28;20117;-71
2023/06/22 08:22:02;;;;;;;16.88;6.63;;;26.00;91.50;;;;;;5069199;28;20025;-71
2023/06/22 08:24:30;;;;;;;10.25;5.63;;;26.00;91.30;;;;;;5070305;28;20170;-71
2023/06/22 08:26:56;;;;;;;7.53;5.35;;;26.00;91.30;;;;;;5070270;28;20032;-71
2023/06/22 08:29:22;;;;;;;8.75;5.15;;;25.90;91.30;;;;;;5069095;28;20063;-69
2023/06/22 08:31:47;;;;;;;9.85;5.30;;;25.90;91.40;;;;;;5069851;28;20107;-71
2023/06/22 08:34:13;;;;;;;11.23;5.80;;;25.90;91.40;;;;;;5069441;28;20090;-71
2023/06/22 08:36:41;;;;;;;8.45;6.45;;;25.90;91.40;;;;;;5068855;28;20163;-71
2023/06/22 08:39:07;;;;;;;7.80;5.70;;;25.90;91.50;;;;;;5070180;28;20060;-70
2023/06/22 08:41:32;;;;;;;7.90;5.95;;;25.80;91.50;;;;;;5069875;28;20063;-71
2023/06/22 08:43:58;;;;;;;8.25;6.35;;;25.80;91.60;;;;;;5069814;28;20033;-71
2023/06/22 08:46:30;;;;;;;12.05;6.88;;;25.90;91.60;;;;;;5070216;28;20029;-71
2023/06/22 08:48:59;;;;;;;13.45;7.20;;;25.90;91.60;;;;;;5068992;28;20187;-70
2023/06/22 08:51:25;;;;;;;24.48;7.55;;;26.00;91.50;;;;;;5070027;28;20060;-71
2023/06/22 08:53:50;;;;;;;12.07;6.45;;;26.00;91.60;;;;;;5054231;28;20068;-71
2023/06/22 08:56:16;;;;;;;11.65;6.57;;;26.00;91.70;;;;;;5041756;28;20451;-70
2023/06/22 08:58:42;;;;;;;12.93;7.28;;;26.00;91.70;;;;;;5036728;28;20083;-70
2023/06/22 09:01:07;;;;;;;16.83;7.00;;;26.00;91.80;;;;;;5030414;28;20028;-70
2023/06/22 09:03:36;;;;;;;19.60;8.00;;;26.10;91.80;;;;;;5029983;28;20033;-70
2023/06/22 09:06:01;;;;;;;19.35;7.93;;;26.10;91.50;;;;;;5030011;28;20057;-70
2023/06/22 09:08:27;;;;;;;10.23;6.97;;;26.10;91.60;;;;;;5030326;28;20387;-70
2023/06/22 09:10:53;;;;;;;14.10;6.93;;;26.20;91.60;;;;;;5029654;28;20381;-70
2023/06/22 09:13:18;;;;;;;11.32;7.63;;;26.10;91.50;;;;;;5064979;28;20029;-69
2023/06/22 09:15:44;;;;;;;16.02;7.88;;;26.20;91.70;;;;;;5033754;28;20037;-71
2023/06/22 09:18:13;;;;;;;14.52;7.25;;;26.40;91.60;;;;;;5033501;28;20522;-71
2023/06/22 09:20:39;;;;;;;15.00;7.82;;;26.50;91.40;;;;;;5033643;28;20029;-70
2023/06/22 09:23:05;;;;;;;10.88;7.43;;;26.60;91.40;;;;;;5033704;28;20105;-71
2023/06/22 09:25:31;;;;;;;16.75;8.40;;;26.60;91.30;;;;;;5034076;28;20439;-70
2023/06/22 09:27:56;;;;;;;12.77;8.68;;;26.80;91.20;;;;;;5033906;28;20113;-70
2023/06/22 09:30:22;;;;;;;12.82;9.25;;;27.00;91.10;;;;;;5033369;28;20442;-70
2023/06/22 09:32:48;;;;;;;16.30;10.25;;;26.90;90.70;;;;;;5033475;28;20037;-71
2023/06/22 09:35:14;;;;;;;15.38;9.30;;;26.90;90.90;;;;;;5033504;28;20049;-71
2023/06/22 09:37:40;;;;;;;12.75;9.10;;;26.90;90.60;;;;;;5033727;28;20037;-69
2023/06/22 09:40:11;;;;;;;17.52;9.65;;;27.00;90.90;;;;;;5033602;28;20371;-70
2023/06/22 09:42:36;;;;;;;17.33;8.45;;;27.00;90.80;;;;;;5033317;28;20067;-69
2023/06/22 09:45:02;;;;;;;15.30;9.85;;;27.00;90.90;;;;;;5033177;28;20389;-70
2023/06/22 09:47:29;;;;;;;19.92;10.85;;;26.90;90.80;;;;;;5033242;28;20098;-71
2023/06/22 09:49:55;;;;;;;12.60;8.93;;;27.00;91.00;;;;;;5033163;28;20029;-71
2023/06/22 09:52:21;;;;;;;17.65;8.85;;;26.90;91.00;;;;;;5033638;28;20018;-71
2023/06/22 09:54:47;;;;;;;21.75;9.60;;;26.80;91.20;;;;;;5033263;28;20120;-68
2023/06/22 09:57:13;;;;;;;16.42;8.70;;;26.90;91.30;;;;;;5033325;28;20105;-70
2023/06/22 09:59:39;;;;;;;12.98;9.48;;;27.10;91.30;;;;;;5032210;28;20056;-71
2023/06/22 10:02:06;;;;;;;30.33;21.13;;;27.20;91.40;;;;;;5031964;28;20026;-72
2023/06/22 10:04:33;;;;;;;20.45;11.60;;;27.20;91.20;;;;;;5032502;28;20031;-72
2023/06/22 10:06:59;;;;;;;22.45;11.82;;;27.20;91.10;;;;;;5032050;28;20048;-70
2023/06/22 10:09:24;;;;;;;15.35;10.43;;;27.20;91.30;;;;;;5031738;28;20021;-69
2023/06/22 10:11:50;;;;;;;16.48;10.27;;;27.20;91.30;;;;;;5032037;28;20037;-70
2023/06/22 10:14:16;;;;;;;18.98;9.75;;;27.30;91.10;;;;;;5031813;28;20053;-69
2023/06/22 10:16:42;;;;;;;13.35;9.60;;;27.30;91.00;;;;;;5031517;28;20120;-69
2023/06/22 10:19:08;;;;;;;13.18;9.18;;;27.20;91.40;;;;;;5033149;28;20420;-70
2023/06/22 10:21:34;;;;;;;14.10;9.50;;;27.20;91.20;;;;;;5032617;28;20103;-69
2023/06/22 10:24:05;;;;;;;12.73;9.27;;;27.10;91.50;;;;;;5032197;28;20463;-70
2023/06/22 10:26:32;;;;;;;15.60;9.45;;;27.00;91.50;;;;;;5032647;28;20080;-69
2023/06/22 10:28:57;;;;;;;11.82;9.52;;;27.00;91.60;;;;;;5032610;28;20539;-70
2023/06/22 10:31:23;;;;;;;13.88;9.65;;;27.10;91.50;;;;;;5032771;28;20132;-71
2023/06/22 10:33:49;;;;;;;15.15;9.68;;;26.90;91.50;;;;;;5032755;28;20033;-68
2023/06/22 10:36:15;;;;;;;16.45;10.38;;;26.90;91.70;;;;;;5032398;28;20029;-70
2023/06/22 10:38:40;;;;;;;12.15;8.70;;;26.90;91.70;;;;;;5032423;28;20030;-68
2023/06/22 10:41:06;;;;;;;14.48;9.68;;;27.00;91.80;;;;;;5032472;28;20029;-71
2023/06/22 10:43:32;;;;;;;19.77;10.23;;;27.10;91.60;;;;;;5032829;28;20021;-72
2023/06/22 10:45:58;;;;;;;18.02;10.23;;;27.20;91.50;;;;;;5032389;28;20022;-70
2023/06/22 10:48:23;;;;;;;12.25;9.43;;;27.10;91.50;;;;;;5031997;28;20036;-70
2023/06/22 10:50:49;;;;;;;13.85;9.77;;;27.20;91.70;;;;;;5064142;28;20052;-68
2023/06/22 10:53:15;;;;;;;17.92;10.43;;;27.10;91.90;;;;;;5032231;28;20371;-69
2023/06/22 10:55:41;;;;;;;20.02;9.60;;;27.20;91.80;;;;;;5032477;28;20029;-69
2023/06/22 10:58:06;;;;;;;14.63;9.05;;;27.20;91.90;;;;;;5032390;28;20037;-69
2023/06/22 11:00:32;;;;;;;14.23;9.55;;;27.30;91.90;;;;;;5031962;28;20115;-67
2023/06/22 11:02:58;;;;;;;18.55;9.88;;;27.30;91.90;;;;;;5031970;28;20095;-70
2023/06/22 11:05:24;;;;;;;18.25;10.68;;;27.30;91.70;;;;;;5032218;28;20031;-67
2023/06/22 11:07:50;;;;;;;25.52;10.23;;;27.40;91.60;;;;;;5031646;28;20393;-68
2023/06/22 11:10:16;;;;;;;32.72;11.05;;;27.30;92.00;;;;;;5032161;28;20033;-68
2023/06/22 11:12:42;;;;;;;28.63;10.75;;;27.40;91.70;;;;;;5031678;28;20103;-69
2023/06/22 11:15:09;;;;;;;18.67;10.85;;;27.40;91.50;;;;;;5031636;28;20044;-67
2023/06/22 11:17:35;;;;;;;14.70;10.50;;;27.50;91.50;;;;;;5031651;28;20040;-68
2023/06/22 11:20:01;;;;;;;17.17;10.00;;;27.50;91.40;;;;;;5031667;28;20103;-68
2023/06/22 11:22:26;;;;;;;16.42;10.80;;;27.50;91.40;;;;;;5032353;28;20463;-67
2023/06/22 11:24:52;;;;;;;16.77;10.32;;;27.50;91.40;;;;;;5032026;28;20034;-68
2023/06/22 11:27:18;;;;;;;19.70;9.95;;;27.50;91.30;;;;;;5031422;28;20424;-68
2023/06/22 11:29:43;;;;;;;17.63;10.50;;;27.50;91.40;;;;;;5030028;28;20063;-71
2023/06/22 11:32:09;;;;;;;20.10;9.95;;;27.60;91.30;;;;;;5031385;28;20026;-67
2023/06/22 11:34:35;;;;;;;22.55;10.43;;;27.60;91.30;;;;;;5031635;28;20064;-68
2023/06/22 11:37:01;;;;;;;21.98;10.55;;;27.50;91.30;;;;;;5031287;28;20116;-69
2023/06/22 11:39:27;;;;;;;18.88;12.27;;;27.40;91.40;;;;;;5063300;28;20034;-69
2023/06/22 11:41:52;;;;;;;15.32;9.60;;;27.50;91.30;;;;;;5031094;28;20037;-69
2023/06/22 11:44:18;;;;;;;15.73;10.70;;;27.40;91.40;;;;;;5031120;28;20042;-69
2023/06/22 11:46:44;;;;;;;18.40;11.10;;;27.50;91.50;;;;;;5030859;28;20017;-72
2023/06/22 11:49:09;;;;;;;23.73;11.85;;;27.60;91.40;;;;;;5031358;28;20025;-70
2023/06/22 11:51:35;;;;;;;14.75;10.02;;;27.80;91.30;;;;;;5030967;28;20359;-70
2023/06/22 11:54:02;;;;;;;27.25;11.73;;;27.80;91.30;;;;;;5030914;28;20164;-67
2023/06/22 11:56:28;;;;;;;14.80;10.48;;;28.00;91.40;;;;;;5030270;28;20048;-71
2023/06/22 11:58:54;;;;;;;17.50;11.30;;;28.10;91.10;;;;;;5031215;28;20026;-71
2023/06/22 12:01:19;;;;;;;14.30;9.32;;;28.20;91.00;;;;;;5030199;28;20112;-70
2023/06/22 12:03:45;;;;;;;22.77;10.95;;;28.40;90.80;;;;;;5029718;28;20116;-70
2023/06/22 12:06:11;;;;;;;16.88;11.25;;;28.50;90.70;;;;;;5030652;28;20033;-71
2023/06/22 12:08:37;;;;;;;17.23;10.15;;;28.60;90.40;;;;;;5030624;28;20033;-72
2023/06/22 12:11:03;;;;;;;20.77;10.35;;;28.70;90.50;;;;;;5030677;28;20045;-71
2023/06/22 12:13:29;;;;;;;18.58;9.38;;;28.70;90.10;;;;;;5031942;28;20033;-71
2023/06/22 12:15:54;;;;;;;13.52;10.13;;;28.80;90.20;;;;;;5029973;28;20052;-71
2023/06/22 12:18:21;;;;;;;18.25;10.43;;;28.80;89.70;;;;;;5030593;28;20041;-70
2023/06/22 12:20:47;;;;;;;26.17;12.13;;;28.80;89.20;;;;;;5030449;28;20036;-71
2023/06/22 12:23:12;;;;;;;19.63;10.35;;;28.80;89.20;;;;;;5030511;28;20455;-70
2023/06/22 12:25:39;;;;;;;18.95;9.95;;;28.80;89.60;;;;;;5029935;28;20029;-71
2023/06/22 12:28:05;;;;;;;24.80;17.25;;;28.70;89.70;;;;;;5031228;28;20022;-71
2023/06/22 12:30:32;;;;;;;15.07;9.57;;;28.70;89.60;;;;;;5031468;28;20461;-71
2023/06/22 12:32:58;;;;;;;14.45;9.57;;;28.60;90.00;;;;;;5062880;28;20356;-70
2023/06/22 12:35:24;;;;;;;13.70;9.82;;;28.70;89.90;;;;;;5029523;28;20040;-70
2023/06/22 12:37:49;;;;;;;13.00;9.40;;;28.70;89.70;;;;;;5030247;28;20344;-71